Time;durP1;ratioP1;P1;durP2;ratioP2;P2;SDS_P1;SDS_P2;PMS_P1;PMS_P2;Temp;Humidity;BMP_temperature;BMP_pressure;BME280_temperature;BME280_humidity;BME280_pressure;Samples;Min_cycle;Max_cycle;Signal;HPM_P1;HPM_P2
2021/09/18 00:00:18;;;;;;;;;17.50;17.00;;;;;21.10;51.97;101118.38;5019176;28;45894;-83
2021/09/18 00:02:43;;;;;;;;;16.75;14.25;;;;;21.03;52.17;101109.53;5015063;28;45547;-83
2021/09/18 00:05:10;;;;;;;;;17.75;17.50;;;;;21.07;52.25;101119.22;4999740;28;45374;-84
2021/09/18 00:07:35;;;;;;;;;16.25;16.25;;;;;21.02;51.90;101113.91;4999630;28;45621;-83
2021/09/18 00:10:01;;;;;;;;;48.75;39.50;;;;;20.88;51.91;101097.16;5001196;28;45432;-84
2021/09/18 00:12:27;;;;;;;;;18.25;16.75;;;;;20.84;52.45;101092.75;5000458;28;45355;-85
2021/09/18 00:14:52;;;;;;;;;20.25;18.75;;;;;20.90;52.74;101110.31;5002496;28;45432;-84
2021/09/18 00:17:18;;;;;;;;;19.25;15.50;;;;;20.69;52.45;101070.69;5002633;28;45296;-84
2021/09/18 00:19:44;;;;;;;;;14.50;12.50;;;;;20.64;52.45;101071.50;5004417;28;46271;-86
2021/09/18 00:22:10;;;;;;;;;16.00;15.00;;;;;20.71;52.39;101090.00;5000896;28;45237;-86
2021/09/18 00:24:36;;;;;;;;;18.75;16.00;;;;;20.86;52.34;101120.81;5001005;28;45243;-84
2021/09/18 00:27:04;;;;;;;;;15.50;15.50;;;;;20.80;52.87;101112.00;5002770;28;45427;-86
2021/09/18 00:29:30;;;;;;;;;17.25;14.50;;;;;20.60;52.56;101077.63;5008616;28;45423;-87
2021/09/18 00:31:56;;;;;;;;;15.75;14.00;;;;;20.80;53.00;101106.75;5010107;28;45789;-84
2021/09/18 00:34:22;;;;;;;;;15.75;15.50;;;;;20.75;52.58;101104.06;5019877;28;45387;-84
2021/09/18 00:36:47;;;;;;;;;14.25;14.25;;;;;20.83;53.08;101107.66;5020538;28;45446;-84
2021/09/18 00:39:13;;;;;;;;;19.75;16.75;;;;;20.76;52.83;101094.44;5018801;28;45464;-84
2021/09/18 00:41:39;;;;;;;;;18.00;15.25;;;;;20.84;52.66;101104.13;5019004;28;45378;-85
2021/09/18 00:44:05;;;;;;;;;15.50;14.50;;;;;20.75;53.28;101097.94;5019619;28;45395;-83
2021/09/18 00:46:30;;;;;;;;;18.00;17.00;;;;;20.75;53.00;101095.31;5017673;28;45446;-83
2021/09/18 00:48:56;;;;;;;;;16.25;14.75;;;;;20.67;52.84;101090.84;5018185;28;45958;-85
2021/09/18 00:51:21;;;;;;;;;13.00;12.25;;;;;20.64;53.15;101092.56;5022986;28;45321;-84
2021/09/18 00:53:47;;;;;;;;;12.75;12.75;;;;;20.61;53.34;101084.66;5022187;28;45312;-85
2021/09/18 00:56:13;;;;;;;;;18.50;16.50;;;;;20.66;52.83;101099.63;5019956;28;45634;-84
2021/09/18 00:58:39;;;;;;;;;17.75;14.50;;;;;20.67;53.01;101101.38;5017983;28;45963;-83
2021/09/18 01:01:05;;;;;;;;;15.50;14.25;;;;;20.45;53.01;101066.13;5016085;28;45759;-84
2021/09/18 01:03:31;;;;;;;;;17.75;16.50;;;;;20.67;53.55;101100.47;5017784;28;45362;-83
2021/09/18 01:05:58;;;;;;;;;14.75;14.00;;;;;20.62;52.98;101096.94;5018415;28;45455;-83
2021/09/18 01:08:26;;;;;;;;;15.75;13.75;;;;;20.64;53.42;101097.81;5018245;28;46139;-83
2021/09/18 01:10:52;;;;;;;;;17.25;16.50;;;;;20.49;53.72;101069.66;5018826;28;45169;-83
2021/09/18 01:13:19;;;;;;;;;11.50;11.50;;;;;20.61;53.17;101093.41;5018895;28;45475;-83
2021/09/18 01:15:46;;;;;;;;;15.75;15.75;;;;;20.56;53.48;101087.25;5019441;28;45322;-84
2021/09/18 01:18:12;;;;;;;;;15.50;14.50;;;;;20.57;53.83;101092.53;5026875;28;46352;-84
2021/09/18 01:20:39;;;;;;;;;12.25;12.25;;;;;20.55;53.64;101086.34;5017242;28;45567;-83
2021/09/18 01:23:07;;;;;;;;;16.00;15.75;;;;;20.45;53.66;101067.88;5000069;28;45187;-83
2021/09/18 01:25:35;;;;;;;;;19.25;16.50;;;;;20.45;53.26;101078.41;5002306;28;45235;-84
2021/09/18 01:28:02;;;;;;;;;20.50;18.00;;;;;20.43;53.71;101081.00;5005901;28;45330;-85
2021/09/18 01:30:30;;;;;;;;;17.50;16.25;;;;;20.48;53.90;101086.28;5018532;28;45835;-83
2021/09/18 01:32:58;;;;;;;;;16.50;16.25;;;;;20.44;53.61;101074.88;5016928;28;45434;-83
2021/09/18 01:35:24;;;;;;;;;18.50;16.25;;;;;20.50;53.84;101097.72;5016379;28;45567;-84
2021/09/18 01:37:50;;;;;;;;;15.50;13.75;;;;;20.38;53.80;101080.09;5017210;28;45355;-84
2021/09/18 01:40:22;;;;;;;;;16.25;15.50;;;;;20.48;53.69;101088.91;5017225;28;45451;-84
2021/09/18 01:42:48;;;;;;;;;14.50;13.50;;;;;20.28;53.96;101054.59;5018030;28;45357;-83
2021/09/18 01:45:16;;;;;;;;;17.25;15.25;;;;;20.43;54.23;101065.22;5017673;28;45336;-84
2021/09/18 01:47:51;;;;;;;;;16.25;14.50;;;;;20.44;53.94;101060.84;5016876;28;45521;-85
2021/09/18 01:50:29;;;;;;;;;16.50;15.50;;;;;20.61;53.46;101084.66;5016779;28;45457;-87
2021/09/18 01:53:02;;;;;;;;;15.50;13.50;;;;;20.50;53.54;101068.78;5025900;28;45239;-83
2021/09/18 01:55:28;;;;;;;;;17.00;16.00;;;;;20.38;53.53;101049.41;5019964;28;45211;-87
2021/09/18 01:57:56;;;;;;;;;18.00;13.75;;;;;20.57;53.79;101091.66;5017959;28;45926;-84
2021/09/18 02:00:22;;;;;;;;;13.50;13.50;;;;;20.58;53.36;101088.13;5018867;28;45239;-83
2021/09/18 02:02:48;;;;;;;;;18.00;16.75;;;;;20.56;53.98;101096.03;5021588;28;45457;-84
2021/09/18 02:05:16;;;;;;;;;18.25;14.25;;;;;20.47;53.38;101077.53;5043823;28;45733;-82
2021/09/18 02:07:42;;;;;;;;;14.50;13.75;;;;;20.54;53.67;101089.00;5026885;28;45441;-83
2021/09/18 02:10:11;;;;;;;;;20.00;16.75;;;;;20.46;53.64;101069.66;5015604;28;45363;-83
2021/09/18 02:12:37;;;;;;;;;36.50;31.25;;;;;20.56;53.62;101082.00;5012090;28;45232;-83
2021/09/18 02:15:05;;;;;;;;;15.75;14.25;;;;;20.48;53.90;101065.25;5017722;28;45357;-82
2021/09/18 02:17:31;;;;;;;;;17.25;15.25;;;;;20.51;53.22;101075.81;5017020;28;45387;-87
2021/09/18 02:19:57;;;;;;;;;16.25;11.75;;;;;20.54;53.56;101075.84;5016961;28;45356;-83
2021/09/18 02:22:23;;;;;;;;;13.50;12.50;;;;;20.35;53.38;101044.16;5016415;28;45247;-84
2021/09/18 02:24:49;;;;;;;;;16.50;14.75;;;;;20.59;53.91;101089.03;5017624;28;45560;-82
2021/09/18 02:27:14;;;;;;;;;14.25;12.00;;;;;20.56;53.21;101079.38;5017821;28;46435;-83
2021/09/18 02:29:40;;;;;;;;;16.25;13.00;;;;;20.57;53.88;101074.09;5017236;28;45443;-84
2021/09/18 02:32:06;;;;;;;;;13.75;13.75;;;;;20.52;53.65;101065.28;5017087;28;45238;-83
2021/09/18 02:34:32;;;;;;;;;15.75;13.00;;;;;20.54;52.94;101074.06;5017496;28;45299;-84
2021/09/18 02:36:57;;;;;;;;;12.00;12.00;;;;;20.44;53.30;101053.84;5015857;28;45433;-83
2021/09/18 02:39:23;;;;;;;;;13.25;13.25;;;;;20.55;53.49;101073.22;5017154;28;45556;-84
2021/09/18 02:41:49;;;;;;;;;13.50;12.75;;;;;20.54;53.38;101071.44;5018737;28;45336;-83
2021/09/18 02:44:14;;;;;;;;;15.00;13.25;;;;;20.54;53.17;101075.84;5021948;28;45546;-82
2021/09/18 02:46:40;;;;;;;;;13.50;13.50;;;;;20.34;52.87;101041.47;5035945;28;47238;-83
2021/09/18 02:49:05;;;;;;;;;15.75;13.00;;;;;20.34;53.69;101050.25;5024176;28;45477;-83
2021/09/18 02:51:31;;;;;;;;;14.25;13.25;;;;;20.30;53.70;101045.84;5019180;28;45363;-82
2021/09/18 02:53:58;;;;;;;;;14.50;12.75;;;;;20.37;53.07;101063.41;5006954;28;45667;-83
2021/09/18 02:56:24;;;;;;;;;13.00;12.25;;;;;20.30;53.28;101050.22;4997895;28;45288;-83
2021/09/18 02:58:50;;;;;;;;;12.25;12.25;;;;;20.14;53.05;101021.16;4999079;28;45170;-82
2021/09/18 03:01:15;;;;;;;;;16.00;13.00;;;;;20.16;53.65;101029.06;5016759;28;46693;-83
2021/09/18 03:03:41;;;;;;;;;15.75;12.25;;;;;20.35;53.38;101064.28;5015350;28;45534;-83
2021/09/18 03:06:07;;;;;;;;;12.00;12.00;;;;;20.16;53.43;101040.47;5016044;28;45240;-84
2021/09/18 03:08:32;;;;;;;;;14.00;13.25;;;;;20.29;53.38;101062.47;5014888;28;45357;-82
2021/09/18 03:10:58;;;;;;;;;16.75;14.00;;;;;20.23;53.85;101059.81;5016729;28;45387;-86
2021/09/18 03:13:24;;;;;;;;;16.75;16.00;;;;;20.22;53.46;101072.06;5016782;28;45525;-84
2021/09/18 03:15:49;;;;;;;;;14.50;13.00;;;;;20.15;53.50;101053.56;5014443;28;47653;-83
2021/09/18 03:18:15;;;;;;;;;14.00;13.50;;;;;20.03;53.97;101036.81;5017694;28;45489;-82
2021/09/18 03:20:40;;;;;;;;;15.25;14.25;;;;;20.11;53.98;101050.03;5022214;28;45374;-82
2021/09/18 03:23:08;;;;;;;;;18.00;15.25;;;;;20.02;54.01;101031.56;5018401;28;45327;-84
2021/09/18 03:25:34;;;;;;;;;19.25;15.00;;;;;20.01;54.07;101025.44;5024561;28;46097;-83
2021/09/18 03:28:00;;;;;;;;;15.00;14.50;;;;;20.25;53.49;101064.22;5016710;28;45803;-84
2021/09/18 03:30:26;;;;;;;;;12.00;12.00;;;;;20.26;53.78;101068.59;5031393;28;45377;-83
2021/09/18 03:32:51;;;;;;;;;13.75;13.75;;;;;20.04;53.62;101035.97;5022789;28;45171;-84
2021/09/18 03:35:17;;;;;;;;;19.00;16.75;;;;;20.24;54.17;101061.56;5023425;28;45416;-82
2021/09/18 03:37:43;;;;;;;;;16.50;15.50;;;;;20.22;53.88;101063.31;5017371;28;45237;-82
2021/09/18 03:40:11;;;;;;;;;17.50;15.25;;;;;20.10;53.85;101048.28;5017547;28;45356;-83
2021/09/18 03:42:37;;;;;;;;;13.25;13.25;;;;;20.12;53.89;101045.69;5012827;28;45350;-82
2021/09/18 03:45:04;;;;;;;;;10.25;10.25;;;;;20.00;54.36;101036.81;5007859;28;46222;-81
2021/09/18 03:47:29;;;;;;;;;16.00;13.50;;;;;20.01;54.24;101049.09;5016033;28;45753;-84
2021/09/18 03:49:55;;;;;;;;;15.25;13.50;;;;;19.92;54.35;101033.25;5015576;28;45185;-83
2021/09/18 03:52:21;;;;;;;;;14.00;11.75;;;;;20.03;54.64;101064.88;5015953;28;45383;-83
2021/09/18 03:54:47;;;;;;;;;14.50;13.75;;;;;19.97;54.77;101052.56;5015466;28;45295;-83
2021/09/18 03:57:12;;;;;;;;;14.25;14.25;;;;;20.01;54.49;101061.34;5018830;28;45277;-83
2021/09/18 03:59:38;;;;;;;;;14.25;14.25;;;;;19.88;54.14;101040.19;5018069;28;45282;-84
2021/09/18 04:02:04;;;;;;;;;16.50;12.50;;;;;19.85;54.27;101036.63;5008829;28;45347;-83
2021/09/18 04:04:29;;;;;;;;;15.50;15.50;;;;;19.90;54.69;101046.34;5019190;28;45823;-83
2021/09/18 04:06:55;;;;;;;;;17.75;17.75;;;;;19.91;54.76;101052.50;5019036;28;45339;-83
2021/09/18 04:09:20;;;;;;;;;18.00;15.50;;;;;19.78;54.42;101035.69;5018907;28;45498;-83
2021/09/18 04:11:46;;;;;;;;;16.25;14.75;;;;;19.72;54.20;101028.59;5019194;28;45513;-84
2021/09/18 04:14:12;;;;;;;;;16.75;14.00;;;;;19.84;54.20;101051.53;5018539;28;45524;-83
2021/09/18 04:16:37;;;;;;;;;16.25;16.25;;;;;19.91;54.36;101065.66;5021887;28;45225;-83
2021/09/18 04:19:03;;;;;;;;;17.25;14.75;;;;;19.86;54.70;101072.59;5027238;28;45428;-81
2021/09/18 04:21:29;;;;;;;;;18.00;15.75;;;;;19.79;55.04;101050.56;5025398;28;45228;-84
2021/09/18 04:23:55;;;;;;;;;21.00;19.00;;;;;19.68;54.33;101039.06;5025234;28;45817;-83
2021/09/18 04:26:20;;;;;;;;;22.00;21.00;;;;;19.84;54.86;101069.91;5021511;28;45328;-83
2021/09/18 04:28:46;;;;;;;;;28.50;23.00;;;;;19.76;54.27;101050.56;5022045;28;45244;-83
2021/09/18 04:31:12;;;;;;;;;35.25;32.75;;;;;19.80;54.74;101061.13;5018130;28;45571;-84
2021/09/18 04:33:38;;;;;;;;;31.75;29.50;;;;;19.70;54.41;101050.47;5018737;28;45452;-86
2021/09/18 04:36:04;;;;;;;;;30.25;28.75;;;;;19.78;54.65;101068.09;5021093;28;45465;-84
2021/09/18 04:38:30;;;;;;;;;31.25;30.75;;;;;19.61;54.32;101039.03;5021562;28;45219;-85
2021/09/18 04:40:55;;;;;;;;;27.75;27.25;;;;;19.79;54.59;101076.84;5020205;28;45332;-86
2021/09/18 04:43:21;;;;;;;;;32.75;30.50;;;;;19.79;54.49;101076.84;5020926;28;45972;-83
2021/09/18 04:45:47;;;;;;;;;29.00;25.25;;;;;19.78;54.94;101069.81;5018688;28;45372;-83
2021/09/18 04:48:12;;;;;;;;;25.00;24.50;;;;;19.71;54.42;101057.50;4999727;28;45297;-84
2021/09/18 04:50:38;;;;;;;;;29.50;26.00;;;;;19.78;54.94;101056.69;5017139;28;45579;-84
2021/09/18 04:53:04;;;;;;;;;21.50;20.50;;;;;19.80;54.53;101063.75;5016323;28;45352;-83
2021/09/18 04:55:29;;;;;;;;;16.75;16.75;;;;;19.82;54.31;101069.00;5018488;28;45427;-83
2021/09/18 04:57:55;;;;;;;;;21.00;17.00;;;;;19.62;54.82;101047.75;5021667;28;45248;-83
2021/09/18 05:00:21;;;;;;;;;19.00;16.50;;;;;19.69;54.31;101053.97;5017961;28;45297;-83
2021/09/18 05:02:47;;;;;;;;;19.25;17.25;;;;;19.79;55.09;101062.00;5026165;28;45415;-83
2021/09/18 05:05:13;;;;;;;;;22.00;17.25;;;;;19.72;54.42;101067.16;5024431;28;44726;-83
2021/09/18 05:07:38;;;;;;;;;17.75;16.00;;;;;19.54;54.91;101039.81;5021261;28;45429;-83
2021/09/18 05:10:05;;;;;;;;;15.75;13.75;;;;;19.72;54.68;101069.78;5022624;28;45535;-83
2021/09/18 05:12:31;;;;;;;;;15.50;15.50;;;;;19.65;55.27;101066.19;5023298;28;45357;-83
2021/09/18 05:14:56;;;;;;;;;15.25;15.25;;;;;19.68;54.88;101074.13;5017633;28;45556;-84
2021/09/18 05:17:22;;;;;;;;;17.00;16.25;;;;;19.70;54.89;101077.66;5017923;28;45422;-83
2021/09/18 05:19:47;;;;;;;;;12.25;12.00;;;;;19.70;55.14;101079.38;5018011;28;45268;-84
2021/09/18 05:22:13;;;;;;;;;17.00;15.50;;;;;19.70;54.59;101076.75;5018740;28;45827;-84
2021/09/18 05:24:39;;;;;;;;;14.00;12.50;;;;;19.64;54.89;101070.59;5018645;28;45284;-85
2021/09/18 05:27:06;;;;;;;;;12.50;11.75;;;;;19.70;54.42;101075.03;5017678;28;45173;-82
2021/09/18 05:29:32;;;;;;;;;13.25;13.25;;;;;19.64;54.43;101075.84;5031356;28;45259;-85
2021/09/18 05:31:57;;;;;;;;;17.50;16.75;;;;;19.64;55.13;101061.81;5013039;28;46952;-86
2021/09/18 05:34:23;;;;;;;;;17.75;13.75;;;;;19.75;54.92;101080.31;5018053;28;45258;-83
2021/09/18 05:36:48;;;;;;;;;17.00;14.00;;;;;19.65;54.37;101068.81;5018632;28;45685;-84
2021/09/18 05:39:14;;;;;;;;;16.00;15.50;;;;;19.63;54.44;101070.53;5017953;28;45413;-86
2021/09/18 05:41:40;;;;;;;;;18.25;15.75;;;;;19.59;54.82;101069.63;5017688;28;46462;-85
2021/09/18 05:44:05;;;;;;;;;15.00;14.25;;;;;19.71;54.92;101086.41;5017994;28;45456;-79
2021/09/18 05:46:31;;;;;;;;;15.50;14.25;;;;;19.74;55.18;101094.31;5025468;28;45393;-81
2021/09/18 05:48:57;;;;;;;;;14.50;9.00;;;;;19.70;54.66;101085.53;5022857;28;45427;-83
2021/09/18 05:51:22;;;;;;;;;15.50;10.50;;;;;19.70;54.52;101077.66;5022136;28;45579;-83
2021/09/18 05:53:48;;;;;;;;;17.25;14.75;;;;;19.78;54.32;101093.47;5017432;28;45467;-84
2021/09/18 05:56:14;;;;;;;;;15.25;14.25;;;;;19.70;54.48;101082.00;5016144;28;45553;-83
2021/09/18 05:58:39;;;;;;;;;12.25;12.25;;;;;19.75;54.63;101094.34;5016378;28;45483;-82
2021/09/18 06:01:05;;;;;;;;;14.00;12.00;;;;;19.79;54.56;101096.13;5008081;28;46783;-82
2021/09/18 06:03:30;;;;;;;;;15.25;14.50;;;;;19.83;54.82;101093.53;5016707;28;45333;-82
2021/09/18 06:05:56;;;;;;;;;15.75;12.50;;;;;19.78;54.32;101086.50;5015628;28;45240;-82
2021/09/18 06:08:22;;;;;;;;;13.00;12.00;;;;;19.82;54.09;101100.53;5018315;28;45505;-83
2021/09/18 06:10:48;;;;;;;;;10.75;10.75;;;;;19.83;54.63;101099.69;5017828;28;45470;-89
2021/09/18 06:13:14;;;;;;;;;14.50;12.50;;;;;19.83;54.38;101102.31;5034047;28;45380;-86
2021/09/18 06:15:40;;;;;;;;;12.75;11.75;;;;;19.83;54.19;101104.03;5019384;28;45509;-81
2021/09/18 06:18:05;;;;;;;;;11.75;11.00;;;;;19.63;54.32;101078.41;5027435;28;44835;-87
2021/09/18 06:20:31;;;;;;;;;13.25;11.50;;;;;19.81;54.67;101114.53;5039553;28;48255;-86
2021/09/18 06:22:57;;;;;;;;;17.25;14.00;;;;;19.75;54.13;101112.72;5037573;28;45312;-88
2021/09/18 06:25:22;;;;;;;;;11.75;11.50;;;;;19.75;54.63;101106.59;5027679;28;45402;-86
2021/09/18 06:27:48;;;;;;;;;12.00;11.75;;;;;19.60;54.10;101074.03;5026436;28;44802;-89
2021/09/18 06:30:15;;;;;;;;;12.75;11.50;;;;;19.73;54.29;101101.31;5025216;28;46848;-92
2021/09/18 06:32:42;;;;;;;;;15.75;12.75;;;;;19.61;54.63;101069.63;5028973;28;45184;-85
2021/09/18 06:35:09;;;;;;;;;15.50;13.00;;;;;19.57;54.73;101063.47;5027416;28;45253;-88
2021/09/18 06:37:47;;;;;;;;;14.75;12.50;;;;;19.79;53.94;101101.41;5026674;28;45529;-86
2021/09/18 06:40:16;;;;;;;;;15.75;13.00;;;;;19.87;54.42;101106.75;5022946;28;45343;-87
2021/09/18 06:42:44;;;;;;;;;13.00;12.50;;;;;19.69;54.12;101077.63;5018241;28;46665;-87
2021/09/18 06:45:11;;;;;;;;;11.00;10.50;;;;;19.64;54.04;101056.53;5017802;28;45742;-88
2021/09/18 06:47:37;;;;;;;;;12.25;11.25;;;;;19.79;54.26;101084.72;5018529;28;45670;-87
2021/09/18 06:50:05;;;;;;;;;11.50;10.50;;;;;19.83;53.84;101085.63;5022155;28;46855;-85
2021/09/18 06:52:30;;;;;;;;;14.75;12.00;;;;;19.82;54.31;101076.00;5014734;28;45415;-88
2021/09/18 06:54:56;;;;;;;;;10.25;10.25;;;;;19.92;54.42;101091.06;5040359;28;45429;-89
2021/09/18 06:57:22;;;;;;;;;14.50;11.50;;;;;19.78;53.63;101069.81;5020563;28;45256;-87
2021/09/18 06:59:48;;;;;;;;;10.75;9.75;;;;;19.79;53.97;101068.97;5019902;28;47734;-87
2021/09/18 07:02:13;;;;;;;;;12.25;11.50;;;;;19.90;54.17;101084.91;5019276;28;45406;-89
2021/09/18 07:04:39;;;;;;;;;14.00;14.00;;;;;20.07;53.83;101108.72;5018807;28;45448;-88
2021/09/18 07:07:05;;;;;;;;;9.50;9.25;;;;;20.08;54.16;101108.72;5020110;28;45401;-88
2021/09/18 07:09:31;;;;;;;;;13.25;11.00;;;;;20.13;53.78;101105.28;5018626;28;46941;-88
2021/09/18 07:11:57;;;;;;;;;12.75;12.75;;;;;20.13;53.97;101098.25;5021026;28;45388;-87
2021/09/18 07:14:23;;;;;;;;;13.25;12.75;;;;;20.02;53.43;101082.41;5025400;28;45327;-88
2021/09/18 07:16:49;;;;;;;;;10.00;9.25;;;;;20.23;53.59;101118.50;5035260;28;45266;-88
2021/09/18 07:19:15;;;;;;;;;11.75;11.00;;;;;20.08;53.34;101089.47;5024693;28;46895;-87
2021/09/18 07:21:41;;;;;;;;;13.25;13.25;;;;;20.26;53.15;101121.19;5024218;28;45340;-87
2021/09/18 07:24:07;;;;;;;;;14.75;12.50;;;;;20.30;53.17;101118.59;5024196;28;45201;-88
2021/09/18 07:26:33;;;;;;;;;10.75;10.75;;;;;20.21;52.93;101104.47;5020268;28;45535;-87
2021/09/18 07:29:00;;;;;;;;;12.75;12.50;;;;;20.33;53.01;101119.50;5018039;28;47307;-90
2021/09/18 07:31:26;;;;;;;;;14.00;11.00;;;;;20.21;52.91;101091.31;5017419;28;45311;-88
2021/09/18 07:33:52;;;;;;;;;15.00;12.25;;;;;20.20;52.93;101084.31;5011954;28;45448;-85
2021/09/18 07:36:19;;;;;;;;;14.50;12.25;;;;;20.38;53.51;101112.53;5015526;28;45875;-86
2021/09/18 07:38:46;;;;;;;;;13.25;11.50;;;;;20.15;52.68;101069.34;5025434;28;45457;-87
2021/09/18 07:41:15;;;;;;;;;12.75;12.75;;;;;20.03;52.77;101033.34;5028981;28;45096;-91
2021/09/18 07:43:41;;;;;;;;;15.75;15.25;;;;;20.51;52.93;101117.88;5022351;28;45333;-85
2021/09/18 07:46:07;;;;;;;;;13.25;13.25;;;;;20.49;52.53;101123.16;5013057;28;45579;-88
2021/09/18 07:48:33;;;;;;;;;11.75;10.50;;;;;20.56;53.01;101131.97;5019513;28;47519;-88
2021/09/18 07:50:58;;;;;;;;;14.00;13.50;;;;;20.55;53.05;101144.22;5017138;28;45407;-87
2021/09/18 07:53:24;;;;;;;;;16.75;13.75;;;;;20.55;52.98;101138.09;5021971;28;45369;-86
2021/09/18 07:55:50;;;;;;;;;14.25;12.00;;;;;20.23;53.16;101083.47;5037038;28;45300;-87
2021/09/18 07:58:16;;;;;;;;;12.25;10.00;;;;;20.52;52.91;101141.56;5025115;28;47425;-85
2021/09/18 08:00:43;;;;;;;;;16.25;13.00;;;;;20.34;53.08;101097.59;5027388;28;45266;-86
2021/09/18 08:03:09;;;;;;;;;13.00;12.00;;;;;20.38;52.45;101115.16;5030320;28;45232;-88
2021/09/18 08:05:34;;;;;;;;;10.00;9.75;;;;;20.50;52.70;101124.91;5025710;28;45540;-84
2021/09/18 08:08:02;;;;;;;;;18.75;16.75;;;;;20.52;52.56;101120.53;5018746;28;45473;-82
2021/09/18 08:10:28;;;;;;;;;14.00;12.75;;;;;20.38;52.68;101093.25;5036193;28;45412;-86
2021/09/18 08:12:54;;;;;;;;;13.50;13.50;;;;;20.54;52.52;101110.03;5018360;28;45265;-86
2021/09/18 08:15:20;;;;;;;;;11.50;11.50;;;;;20.72;52.70;101125.09;5018235;28;45357;-84
2021/09/18 08:17:47;;;;;;;;;15.00;13.25;;;;;20.78;52.37;101129.56;5018018;28;46809;-83
2021/09/18 08:20:15;;;;;;;;;16.50;16.25;;;;;20.84;51.82;101138.34;5019798;28;45449;-81
2021/09/18 08:22:41;;;;;;;;;13.50;12.50;;;;;20.82;52.49;101128.69;5015736;28;45465;-82
2021/09/18 08:25:08;;;;;;;;;16.50;13.50;;;;;20.76;52.22;101104.97;5015996;28;45319;-80
2021/09/18 08:27:35;;;;;;;;;16.25;16.25;;;;;20.82;52.32;101119.06;5003921;28;47092;-82
2021/09/18 08:30:00;;;;;;;;;17.25;15.50;;;;;20.95;52.07;101127.91;5016494;28;45684;-81
2021/09/18 08:32:27;;;;;;;;;13.50;13.50;;;;;21.05;51.59;101136.78;5018584;28;45189;-87
2021/09/18 08:34:53;;;;;;;;;15.50;12.75;;;;;21.02;51.16;101115.69;5026019;28;45467;-83
2021/09/18 08:37:18;;;;;;;;;14.25;12.75;;;;;21.09;51.32;101127.13;5023175;28;46192;-80
2021/09/18 08:39:44;;;;;;;;;13.75;11.75;;;;;21.16;51.70;101131.56;5017674;28;45577;-79
2021/09/18 08:42:11;;;;;;;;;11.25;11.00;;;;;21.24;51.84;101134.25;5002603;28;45321;-79
2021/09/18 08:44:37;;;;;;;;;10.50;10.00;;;;;21.22;50.97;101120.19;5004817;28;45269;-79
2021/09/18 08:47:03;;;;;;;;;8.75;6.25;;;;;21.26;49.76;101116.72;5005534;28;45394;-84
2021/09/18 08:49:29;;;;;;;;;10.50;8.75;;;;;21.20;50.33;101112.28;5004428;28;45315;-83
2021/09/18 08:51:55;;;;;;;;;7.75;6.75;;;;;21.37;49.27;101122.00;4999899;28;45221;-81
2021/09/18 08:54:20;;;;;;;;;11.00;10.00;;;;;21.29;48.29;101119.34;5009501;28;45574;-79
2021/09/18 08:56:47;;;;;;;;;8.00;8.00;;;;;21.09;48.55;101106.94;5017806;28;46645;-80
2021/09/18 08:59:13;;;;;;;;;9.50;9.50;;;;;21.20;48.80;101125.44;5017226;28;45345;-83
2021/09/18 09:01:38;;;;;;;;;11.50;10.25;;;;;21.18;49.18;101127.19;5017397;28;45251;-77
2021/09/18 09:04:10;;;;;;;;;11.00;9.00;;;;;21.19;48.99;101119.28;5002071;28;45463;-78
2021/09/18 09:06:50;;;;;;;;;13.75;12.50;;;;;21.17;48.91;101128.06;5013142;28;45464;-83
2021/09/18 09:09:16;;;;;;;;;11.00;10.75;;;;;21.09;49.05;101106.06;5016289;28;45452;-80
2021/09/18 09:11:52;;;;;;;;;12.00;9.00;;;;;21.18;49.02;101116.66;5016654;28;45480;-83
2021/09/18 09:14:18;;;;;;;;;32.50;22.50;;;;;21.22;49.11;101117.53;5018037;28;45473;-83
2021/09/18 09:17:02;;;;;;;;;10.50;8.25;;;;;21.26;49.52;101124.59;5005620;28;45497;-84
2021/09/18 09:19:38;;;;;;;;;9.75;9.00;;;;;21.15;49.34;101093.81;4998114;28;45410;-83
2021/09/18 09:22:03;;;;;;;;;12.00;9.00;;;;;21.17;49.00;101091.19;4998065;28;45271;-82
2021/09/18 09:24:30;;;;;;;;;7.50;7.00;;;;;21.28;48.85;101096.50;4997325;28;45745;-83
2021/09/18 09:27:11;;;;;;;;;8.25;8.25;;;;;21.37;48.47;101116.75;4996421;28;46079;-83
2021/09/18 09:29:48;;;;;;;;;7.25;7.25;;;;;21.32;48.85;101111.47;4997701;28;45846;-83
2021/09/18 09:32:37;;;;;;;;;9.25;7.00;;;;;21.32;49.06;101107.09;5017296;28;45438;-82
2021/09/18 09:35:13;;;;;;;;;10.75;10.75;;;;;21.33;48.97;101107.94;5025638;28;45121;-82
2021/09/18 09:37:50;;;;;;;;;8.25;7.25;;;;;21.40;48.64;101104.47;5020987;28;45283;-81
2021/09/18 09:40:16;;;;;;;;;12.50;12.50;;;;;21.41;48.50;101106.22;5019751;28;45664;-81
2021/09/18 09:42:44;;;;;;;;;11.25;9.25;;;;;21.44;48.47;101102.72;5018039;28;45322;-81
2021/09/18 09:45:15;;;;;;;;;8.75;8.75;;;;;21.48;49.02;101107.13;5017958;28;45304;-81
2021/09/18 09:47:43;;;;;;;;;27.75;25.00;;;;;21.41;49.04;101092.19;5016946;28;46195;-81
2021/09/18 09:50:10;;;;;;;;;19.75;18.50;;;;;21.55;49.15;101102.78;5017322;28;45855;-81
2021/09/18 09:52:38;;;;;;;;;14.25;12.00;;;;;21.62;49.08;101107.22;5032840;28;45283;-80
2021/09/18 09:55:12;;;;;;;;;16.75;12.50;;;;;21.64;49.04;101108.13;5017262;28;45596;-82
2021/09/18 09:57:40;;;;;;;;;13.00;10.25;;;;;21.64;48.91;101098.47;5017720;28;46027;-83
2021/09/18 10:00:09;;;;;;;;;10.25;10.25;;;;;21.73;48.51;101108.16;5017455;28;45790;-82
2021/09/18 10:02:37;;;;;;;;;10.00;8.00;;;;;21.73;48.62;101102.88;5017722;28;45334;-80
2021/09/18 10:05:09;;;;;;;;;12.75;9.50;;;;;21.79;48.86;101110.81;5017939;28;45375;-81
2021/09/18 10:07:38;;;;;;;;;12.25;12.00;;;;;21.83;48.79;101109.06;5022439;28;45692;-80
2021/09/18 10:10:07;;;;;;;;;12.25;12.25;;;;;21.85;48.63;101107.31;5018278;28;45758;-80
2021/09/18 10:12:33;;;;;;;;;11.75;10.75;;;;;21.88;48.63;101111.72;5017488;28;45389;-83
2021/09/18 10:15:04;;;;;;;;;18.50;13.75;;;;;21.89;48.48;101108.19;5004238;28;45199;-82
2021/09/18 10:17:32;;;;;;;;;10.00;10.00;;;;;21.92;48.36;101109.09;4997486;28;45466;-84
2021/09/18 10:20:07;;;;;;;;;12.00;11.25;;;;;21.88;48.63;101087.97;4996845;28;45468;-80
2021/09/18 10:25:33;;;;;;;;;12.75;12.00;;;;;21.93;48.54;101083.59;4999635;28;45272;-81
2021/09/18 10:28:10;;;;;;;;;15.75;11.25;;;;;22.05;48.38;101102.06;5002225;28;46969;-84
2021/09/18 10:31:00;;;;;;;;;15.00;12.75;;;;;22.09;48.60;101102.94;5002762;28;45328;-83
2021/09/18 10:33:36;;;;;;;;;12.50;12.50;;;;;22.13;48.70;101096.81;4996595;28;45189;-81
2021/09/18 10:36:11;;;;;;;;;9.25;9.25;;;;;22.17;48.72;101092.41;4999858;28;45505;-82
2021/09/18 10:38:52;;;;;;;;;14.00;13.00;;;;;22.19;48.58;101091.53;5012810;28;45320;-80
2021/09/18 10:41:24;;;;;;;;;41.25;34.50;;;;;22.23;48.52;101090.69;5002234;28;45252;-83
2021/09/18 10:44:00;;;;;;;;;22.25;16.75;;;;;22.29;48.47;101089.81;4997524;28;45386;-81
2021/09/18 10:46:46;;;;;;;;;14.00;11.00;;;;;22.34;48.16;101081.88;5007546;28;45509;-81
2021/09/18 10:49:34;;;;;;;;;13.50;11.00;;;;;22.39;48.56;101078.38;5016324;28;46423;-82
2021/09/18 10:52:34;;;;;;;;;13.25;9.75;;;;;22.45;48.40;101071.38;5016150;28;45191;-83
2021/09/18 10:57:38;;;;;;;;;12.00;10.25;;;;;22.53;48.43;101057.28;5016826;28;45303;-81
2021/09/18 11:00:07;;;;;;;;;12.00;10.25;;;;;22.55;48.50;101058.16;5031326;28;47794;-81
2021/09/18 11:02:33;;;;;;;;;8.00;8.00;;;;;22.59;47.79;101052.91;5016101;28;45697;-81
2021/09/18 11:05:07;;;;;;;;;8.75;8.75;;;;;22.63;47.73;101054.63;5015246;28;45204;-80
2021/09/18 11:08:14;;;;;;;;;21.00;20.00;;;;;22.67;47.66;101048.47;5016932;28;45447;-81
2021/09/18 11:10:45;;;;;;;;;7.75;7.25;;;;;22.68;47.06;101043.19;5015601;28;45524;-81
2021/09/18 11:13:11;;;;;;;;;11.25;10.75;;;;;22.73;47.52;101048.50;5018595;28;45727;-80
2021/09/18 11:15:41;;;;;;;;;10.50;9.25;;;;;22.75;47.30;101046.69;5019500;28;45389;-82